sensor_id;sensor_type;location;lat;lon;timestamp;P1;durP1;ratioP1;P2;durP2;ratioP2
58950;SDS011;44730;53.158;6.398;2023-04-24T00:01:37;6.75;;;5.28;;
58950;SDS011;44730;53.158;6.398;2023-04-24T00:04:05;5.03;;;4.30;;
58950;SDS011;44730;53.158;6.398;2023-04-24T00:06:32;6.30;;;4.80;;
58950;SDS011;44730;53.158;6.398;2023-04-24T00:09:02;7.95;;;5.25;;
58950;SDS011;44730;53.158;6.398;2023-04-24T00:11:28;6.28;;;5.15;;
58950;SDS011;44730;53.158;6.398;2023-04-24T00:13:55;6.15;;;4.82;;
58950;SDS011;44730;53.158;6.398;2023-04-24T00:16:21;7.78;;;4.85;;
58950;SDS011;44730;53.158;6.398;2023-04-24T00:18:47;7.30;;;5.38;;
58950;SDS011;44730;53.158;6.398;2023-04-24T00:21:14;7.57;;;4.90;;
58950;SDS011;44730;53.158;6.398;2023-04-24T00:23:44;5.93;;;4.93;;
58950;SDS011;44730;53.158;6.398;2023-04-24T00:26:10;5.78;;;4.45;;
58950;SDS011;44730;53.158;6.398;2023-04-24T00:28:36;4.95;;;3.92;;
58950;SDS011;44730;53.158;6.398;2023-04-24T00:31:02;4.95;;;4.32;;
58950;SDS011;44730;53.158;6.398;2023-04-24T00:33:28;5.60;;;3.90;;
58950;SDS011;44730;53.158;6.398;2023-04-24T00:35:54;4.45;;;3.72;;
58950;SDS011;44730;53.158;6.398;2023-04-24T00:38:21;4.45;;;3.50;;
58950;SDS011;44730;53.158;6.398;2023-04-24T00:40:48;5.20;;;3.70;;
58950;SDS011;44730;53.158;6.398;2023-04-24T00:43:15;5.03;;;3.65;;
58950;SDS011;44730;53.158;6.398;2023-04-24T00:45:42;4.53;;;3.20;;
58950;SDS011;44730;53.158;6.398;2023-04-24T00:48:09;3.60;;;2.85;;
58950;SDS011;44730;53.158;6.398;2023-04-24T00:50:35;4.07;;;3.10;;
58950;SDS011;44730;53.158;6.398;2023-04-24T00:53:02;3.45;;;2.97;;
58950;SDS011;44730;53.158;6.398;2023-04-24T00:55:28;3.63;;;2.90;;
58950;SDS011;44730;53.158;6.398;2023-04-24T00:57:54;4.22;;;3.08;;
58950;SDS011;44730;53.158;6.398;2023-04-24T01:00:20;4.32;;;3.03;;
58950;SDS011;44730;53.158;6.398;2023-04-24T01:02:47;3.45;;;2.70;;
58950;SDS011;44730;53.158;6.398;2023-04-24T01:05:14;5.28;;;2.65;;
58950;SDS011;44730;53.158;6.398;2023-04-24T01:07:43;3.13;;;2.38;;
58950;SDS011;44730;53.158;6.398;2023-04-24T01:10:10;2.28;;;2.05;;
58950;SDS011;44730;53.158;6.398;2023-04-24T01:12:37;3.38;;;1.80;;
58950;SDS011;44730;53.158;6.398;2023-04-24T01:15:03;2.65;;;1.90;;
58950;SDS011;44730;53.158;6.398;2023-04-24T01:17:30;1.98;;;1.77;;
58950;SDS011;44730;53.158;6.398;2023-04-24T01:19:57;2.10;;;1.80;;
58950;SDS011;44730;53.158;6.398;2023-04-24T01:22:25;2.85;;;2.22;;
58950;SDS011;44730;53.158;6.398;2023-04-24T01:24:51;1.88;;;1.73;;
58950;SDS011;44730;53.158;6.398;2023-04-24T01:27:18;2.00;;;1.80;;
58950;SDS011;44730;53.158;6.398;2023-04-24T01:29:46;2.28;;;1.90;;
58950;SDS011;44730;53.158;6.398;2023-04-24T01:32:15;1.92;;;1.70;;
58950;SDS011;44730;53.158;6.398;2023-04-24T01:34:41;2.10;;;1.85;;
58950;SDS011;44730;53.158;6.398;2023-04-24T01:37:07;2.28;;;1.90;;
58950;SDS011;44730;53.158;6.398;2023-04-24T01:39:34;2.15;;;1.90;;
58950;SDS011;44730;53.158;6.398;2023-04-24T01:42:00;2.17;;;1.98;;
58950;SDS011;44730;53.158;6.398;2023-04-24T01:44:27;2.45;;;2.20;;
58950;SDS011;44730;53.158;6.398;2023-04-24T01:46:54;2.03;;;1.83;;
58950;SDS011;44730;53.158;6.398;2023-04-24T01:49:20;3.50;;;2.00;;
58950;SDS011;44730;53.158;6.398;2023-04-24T01:51:46;2.10;;;1.90;;
58950;SDS011;44730;53.158;6.398;2023-04-24T01:54:13;3.13;;;2.20;;
58950;SDS011;44730;53.158;6.398;2023-04-24T01:56:42;2.90;;;2.10;;
58950;SDS011;44730;53.158;6.398;2023-04-24T01:59:11;2.65;;;2.17;;
58950;SDS011;44730;53.158;6.398;2023-04-24T02:01:38;3.90;;;2.40;;
58950;SDS011;44730;53.158;6.398;2023-04-24T02:04:05;2.60;;;2.38;;
58950;SDS011;44730;53.158;6.398;2023-04-24T02:06:31;2.53;;;2.20;;
58950;SDS011;44730;53.158;6.398;2023-04-24T02:08:58;3.13;;;2.60;;
58950;SDS011;44730;53.158;6.398;2023-04-24T02:11:24;4.28;;;2.83;;
58950;SDS011;44730;53.158;6.398;2023-04-24T02:13:51;3.97;;;2.53;;
58950;SDS011;44730;53.158;6.398;2023-04-24T02:16:17;5.97;;;3.08;;
58950;SDS011;44730;53.158;6.398;2023-04-24T02:18:43;4.97;;;3.25;;
58950;SDS011;44730;53.158;6.398;2023-04-24T02:21:10;4.20;;;3.08;;
58950;SDS011;44730;53.158;6.398;2023-04-24T02:23:36;4.50;;;3.40;;
58950;SDS011;44730;53.158;6.398;2023-04-24T02:26:02;3.90;;;3.00;;
58950;SDS011;44730;53.158;6.398;2023-04-24T02:28:28;3.75;;;3.15;;
58950;SDS011;44730;53.158;6.398;2023-04-24T02:30:54;4.18;;;3.30;;
58950;SDS011;44730;53.158;6.398;2023-04-24T02:33:20;4.22;;;3.40;;
58950;SDS011;44730;53.158;6.398;2023-04-24T02:35:46;4.05;;;3.30;;
58950;SDS011;44730;53.158;6.398;2023-04-24T02:38:13;4.93;;;3.60;;
58950;SDS011;44730;53.158;6.398;2023-04-24T02:40:39;5.35;;;3.60;;
58950;SDS011;44730;53.158;6.398;2023-04-24T02:43:05;4.97;;;3.35;;
58950;SDS011;44730;53.158;6.398;2023-04-24T02:45:31;5.00;;;3.92;;
58950;SDS011;44730;53.158;6.398;2023-04-24T02:47:59;6.20;;;4.00;;
58950;SDS011;44730;53.158;6.398;2023-04-24T02:50:25;4.40;;;3.40;;
58950;SDS011;44730;53.158;6.398;2023-04-24T02:52:53;5.50;;;3.90;;
58950;SDS011;44730;53.158;6.398;2023-04-24T02:55:19;5.15;;;4.25;;
58950;SDS011;44730;53.158;6.398;2023-04-24T02:57:45;5.00;;;3.85;;
58950;SDS011;44730;53.158;6.398;2023-04-24T03:00:11;6.60;;;4.93;;
58950;SDS011;44730;53.158;6.398;2023-04-24T03:02:38;6.07;;;4.40;;
58950;SDS011;44730;53.158;6.398;2023-04-24T03:05:04;6.07;;;4.47;;
58950;SDS011;44730;53.158;6.398;2023-04-24T03:07:30;6.55;;;4.63;;
58950;SDS011;44730;53.158;6.398;2023-04-24T03:09:57;8.55;;;5.00;;
58950;SDS011;44730;53.158;6.398;2023-04-24T03:12:23;7.28;;;5.00;;
58950;SDS011;44730;53.158;6.398;2023-04-24T03:14:49;7.00;;;5.25;;
58950;SDS011;44730;53.158;6.398;2023-04-24T03:17:16;8.90;;;5.55;;
58950;SDS011;44730;53.158;6.398;2023-04-24T03:19:42;7.30;;;5.38;;
58950;SDS011;44730;53.158;6.398;2023-04-24T03:22:08;7.57;;;5.40;;
58950;SDS011;44730;53.158;6.398;2023-04-24T03:24:34;6.68;;;5.18;;
58950;SDS011;44730;53.158;6.398;2023-04-24T03:27:00;7.43;;;5.55;;
58950;SDS011;44730;53.158;6.398;2023-04-24T03:29:26;7.57;;;5.68;;
58950;SDS011;44730;53.158;6.398;2023-04-24T03:31:53;9.13;;;6.45;;
58950;SDS011;44730;53.158;6.398;2023-04-24T03:34:19;8.20;;;5.70;;
58950;SDS011;44730;53.158;6.398;2023-04-24T03:36:45;9.77;;;7.13;;
58950;SDS011;44730;53.158;6.398;2023-04-24T03:39:12;10.00;;;7.03;;
58950;SDS011;44730;53.158;6.398;2023-04-24T03:41:39;8.65;;;6.25;;
58950;SDS011;44730;53.158;6.398;2023-04-24T03:44:05;11.25;;;6.43;;
58950;SDS011;44730;53.158;6.398;2023-04-24T03:46:32;9.43;;;6.28;;
58950;SDS011;44730;53.158;6.398;2023-04-24T03:48:58;7.95;;;6.07;;
58950;SDS011;44730;53.158;6.398;2023-04-24T03:51:25;10.13;;;7.13;;
58950;SDS011;44730;53.158;6.398;2023-04-24T03:53:53;9.65;;;6.63;;
58950;SDS011;44730;53.158;6.398;2023-04-24T03:56:19;9.68;;;6.63;;
58950;SDS011;44730;53.158;6.398;2023-04-24T03:58:45;12.15;;;6.90;;
58950;SDS011;44730;53.158;6.398;2023-04-24T04:01:11;10.75;;;7.38;;
58950;SDS011;44730;53.158;6.398;2023-04-24T04:03:38;10.65;;;8.13;;
58950;SDS011;44730;53.158;6.398;2023-04-24T04:06:05;10.75;;;7.80;;
58950;SDS011;44730;53.158;6.398;2023-04-24T04:08:31;13.25;;;9.02;;
58950;SDS011;44730;53.158;6.398;2023-04-24T04:10:57;11.35;;;8.90;;
58950;SDS011;44730;53.158;6.398;2023-04-24T04:13:23;10.65;;;8.38;;
58950;SDS011;44730;53.158;6.398;2023-04-24T04:15:49;9.32;;;7.32;;
58950;SDS011;44730;53.158;6.398;2023-04-24T04:18:15;11.20;;;8.38;;
58950;SDS011;44730;53.158;6.398;2023-04-24T04:20:41;11.18;;;8.63;;
58950;SDS011;44730;53.158;6.398;2023-04-24T04:23:07;10.77;;;8.23;;
58950;SDS011;44730;53.158;6.398;2023-04-24T04:25:33;11.50;;;9.02;;
58950;SDS011;44730;53.158;6.398;2023-04-24T04:28:00;12.15;;;9.10;;
58950;SDS011;44730;53.158;6.398;2023-04-24T04:30:27;11.38;;;8.93;;
58950;SDS011;44730;53.158;6.398;2023-04-24T04:32:54;12.55;;;9.00;;
58950;SDS011;44730;53.158;6.398;2023-04-24T04:35:21;13.32;;;8.57;;
58950;SDS011;44730;53.158;6.398;2023-04-24T04:37:47;11.65;;;8.15;;
58950;SDS011;44730;53.158;6.398;2023-04-24T04:40:13;11.32;;;7.95;;
58950;SDS011;44730;53.158;6.398;2023-04-24T04:42:40;11.02;;;7.82;;
58950;SDS011;44730;53.158;6.398;2023-04-24T04:45:07;11.50;;;6.78;;
58950;SDS011;44730;53.158;6.398;2023-04-24T04:47:34;6.97;;;4.63;;
58950;SDS011;44730;53.158;6.398;2023-04-24T04:50:00;5.05;;;3.60;;
58950;SDS011;44730;53.158;6.398;2023-04-24T04:52:26;5.72;;;3.97;;
58950;SDS011;44730;53.158;6.398;2023-04-24T04:54:52;4.50;;;2.88;;
58950;SDS011;44730;53.158;6.398;2023-04-24T04:57:18;4.43;;;3.13;;
58950;SDS011;44730;53.158;6.398;2023-04-24T04:59:45;3.50;;;2.45;;
58950;SDS011;44730;53.158;6.398;2023-04-24T05:02:11;2.92;;;2.10;;
58950;SDS011;44730;53.158;6.398;2023-04-24T05:04:38;3.28;;;2.50;;
58950;SDS011;44730;53.158;6.398;2023-04-24T05:07:04;2.22;;;1.70;;
58950;SDS011;44730;53.158;6.398;2023-04-24T05:09:30;1.77;;;1.60;;
58950;SDS011;44730;53.158;6.398;2023-04-24T05:11:57;1.88;;;1.40;;
58950;SDS011;44730;53.158;6.398;2023-04-24T05:14:23;3.33;;;1.60;;
58950;SDS011;44730;53.158;6.398;2023-04-24T05:16:49;1.73;;;1.40;;
58950;SDS011;44730;53.158;6.398;2023-04-24T05:19:16;1.90;;;1.70;;
58950;SDS011;44730;53.158;6.398;2023-04-24T05:21:42;1.90;;;1.40;;
58950;SDS011;44730;53.158;6.398;2023-04-24T05:24:08;2.63;;;1.67;;
58950;SDS011;44730;53.158;6.398;2023-04-24T05:26:34;1.73;;;1.63;;
58950;SDS011;44730;53.158;6.398;2023-04-24T05:29:00;2.35;;;1.80;;
58950;SDS011;44730;53.158;6.398;2023-04-24T05:31:27;2.75;;;1.90;;
58950;SDS011;44730;53.158;6.398;2023-04-24T05:33:53;1.92;;;1.63;;
58950;SDS011;44730;53.158;6.398;2023-04-24T05:36:19;1.50;;;1.40;;
58950;SDS011;44730;53.158;6.398;2023-04-24T05:38:45;2.15;;;1.67;;
58950;SDS011;44730;53.158;6.398;2023-04-24T05:41:11;2.55;;;1.42;;
58950;SDS011;44730;53.158;6.398;2023-04-24T05:43:37;2.00;;;1.45;;
58950;SDS011;44730;53.158;6.398;2023-04-24T05:46:04;2.45;;;1.90;;
58950;SDS011;44730;53.158;6.398;2023-04-24T05:48:30;2.75;;;2.00;;
58950;SDS011;44730;53.158;6.398;2023-04-24T05:50:56;2.80;;;2.05;;
58950;SDS011;44730;53.158;6.398;2023-04-24T05:53:22;2.63;;;2.20;;
58950;SDS011;44730;53.158;6.398;2023-04-24T05:55:48;3.63;;;2.75;;
58950;SDS011;44730;53.158;6.398;2023-04-24T05:58:14;4.72;;;2.70;;
58950;SDS011;44730;53.158;6.398;2023-04-24T06:00:41;3.50;;;2.65;;
58950;SDS011;44730;53.158;6.398;2023-04-24T06:03:08;4.40;;;2.97;;
58950;SDS011;44730;53.158;6.398;2023-04-24T06:05:34;3.63;;;2.70;;
58950;SDS011;44730;53.158;6.398;2023-04-24T06:08:00;5.65;;;3.13;;
58950;SDS011;44730;53.158;6.398;2023-04-24T06:10:26;4.30;;;3.17;;
58950;SDS011;44730;53.158;6.398;2023-04-24T06:12:52;3.88;;;3.05;;
58950;SDS011;44730;53.158;6.398;2023-04-24T06:15:21;4.38;;;3.22;;
58950;SDS011;44730;53.158;6.398;2023-04-24T06:17:47;4.75;;;3.10;;
58950;SDS011;44730;53.158;6.398;2023-04-24T06:20:13;4.60;;;3.28;;
58950;SDS011;44730;53.158;6.398;2023-04-24T06:22:39;6.30;;;3.72;;
58950;SDS011;44730;53.158;6.398;2023-04-24T06:25:06;5.05;;;3.17;;
58950;SDS011;44730;53.158;6.398;2023-04-24T06:27:32;6.45;;;3.40;;
58950;SDS011;44730;53.158;6.398;2023-04-24T06:29:58;5.40;;;3.67;;
58950;SDS011;44730;53.158;6.398;2023-04-24T06:32:26;4.80;;;3.72;;
58950;SDS011;44730;53.158;6.398;2023-04-24T06:34:53;4.05;;;3.13;;
58950;SDS011;44730;53.158;6.398;2023-04-24T06:37:22;3.50;;;2.97;;
58950;SDS011;44730;53.158;6.398;2023-04-24T06:39:48;5.20;;;3.20;;
58950;SDS011;44730;53.158;6.398;2023-04-24T06:42:14;4.22;;;3.10;;
58950;SDS011;44730;53.158;6.398;2023-04-24T06:44:40;4.85;;;3.42;;
58950;SDS011;44730;53.158;6.398;2023-04-24T06:47:07;3.38;;;2.72;;
58950;SDS011;44730;53.158;6.398;2023-04-24T06:49:34;5.25;;;2.90;;
58950;SDS011;44730;53.158;6.398;2023-04-24T06:52:00;3.25;;;2.40;;
58950;SDS011;44730;53.158;6.398;2023-04-24T06:54:26;4.13;;;2.20;;
58950;SDS011;44730;53.158;6.398;2023-04-24T06:56:52;4.18;;;2.17;;
58950;SDS011;44730;53.158;6.398;2023-04-24T06:59:19;4.85;;;2.10;;
58950;SDS011;44730;53.158;6.398;2023-04-24T07:01:45;2.60;;;1.70;;
58950;SDS011;44730;53.158;6.398;2023-04-24T07:04:11;3.55;;;2.10;;
58950;SDS011;44730;53.158;6.398;2023-04-24T07:06:38;2.67;;;2.00;;
58950;SDS011;44730;53.158;6.398;2023-04-24T07:09:04;3.53;;;2.10;;
58950;SDS011;44730;53.158;6.398;2023-04-24T07:11:30;4.13;;;2.10;;
58950;SDS011;44730;53.158;6.398;2023-04-24T07:13:57;3.40;;;2.30;;
58950;SDS011;44730;53.158;6.398;2023-04-24T07:16:23;5.40;;;2.70;;
58950;SDS011;44730;53.158;6.398;2023-04-24T07:18:52;4.78;;;2.72;;
58950;SDS011;44730;53.158;6.398;2023-04-24T07:21:18;3.53;;;2.28;;
58950;SDS011;44730;53.158;6.398;2023-04-24T07:23:44;5.22;;;2.50;;
58950;SDS011;44730;53.158;6.398;2023-04-24T07:26:10;3.55;;;2.17;;
58950;SDS011;44730;53.158;6.398;2023-04-24T07:28:36;3.47;;;2.45;;
58950;SDS011;44730;53.158;6.398;2023-04-24T07:31:02;2.30;;;1.80;;
58950;SDS011;44730;53.158;6.398;2023-04-24T07:33:28;2.80;;;2.03;;
58950;SDS011;44730;53.158;6.398;2023-04-24T07:35:54;6.88;;;2.30;;
58950;SDS011;44730;53.158;6.398;2023-04-24T07:38:21;6.35;;;2.05;;
58950;SDS011;44730;53.158;6.398;2023-04-24T07:40:48;4.25;;;2.47;;
58950;SDS011;44730;53.158;6.398;2023-04-24T07:43:14;4.68;;;3.03;;
58950;SDS011;44730;53.158;6.398;2023-04-24T07:45:40;6.20;;;3.38;;
58950;SDS011;44730;53.158;6.398;2023-04-24T07:48:06;5.18;;;3.60;;
58950;SDS011;44730;53.158;6.398;2023-04-24T07:50:34;7.90;;;4.35;;
58950;SDS011;44730;53.158;6.398;2023-04-24T07:53:01;11.18;;;5.82;;
58950;SDS011;44730;53.158;6.398;2023-04-24T07:55:27;10.55;;;6.10;;
58950;SDS011;44730;53.158;6.398;2023-04-24T07:57:53;11.25;;;6.70;;
58950;SDS011;44730;53.158;6.398;2023-04-24T08:00:19;14.68;;;7.82;;
58950;SDS011;44730;53.158;6.398;2023-04-24T08:02:46;14.13;;;8.02;;
58950;SDS011;44730;53.158;6.398;2023-04-24T08:05:12;14.25;;;7.60;;
58950;SDS011;44730;53.158;6.398;2023-04-24T08:07:38;14.13;;;8.52;;
58950;SDS011;44730;53.158;6.398;2023-04-24T08:10:05;13.15;;;8.60;;
58950;SDS011;44730;53.158;6.398;2023-04-24T08:12:32;17.58;;;9.55;;
58950;SDS011;44730;53.158;6.398;2023-04-24T08:14:58;15.40;;;8.77;;
58950;SDS011;44730;53.158;6.398;2023-04-24T08:17:24;17.77;;;9.27;;
58950;SDS011;44730;53.158;6.398;2023-04-24T08:19:50;14.02;;;8.48;;
58950;SDS011;44730;53.158;6.398;2023-04-24T08:22:18;12.82;;;7.80;;
58950;SDS011;44730;53.158;6.398;2023-04-24T08:24:44;15.50;;;8.07;;
58950;SDS011;44730;53.158;6.398;2023-04-24T08:27:10;10.02;;;7.53;;
58950;SDS011;44730;53.158;6.398;2023-04-24T08:29:36;13.98;;;6.93;;
58950;SDS011;44730;53.158;6.398;2023-04-24T08:32:02;14.05;;;8.05;;
58950;SDS011;44730;53.158;6.398;2023-04-24T08:34:29;12.63;;;8.18;;
58950;SDS011;44730;53.158;6.398;2023-04-24T08:36:55;15.30;;;7.80;;
58950;SDS011;44730;53.158;6.398;2023-04-24T08:39:21;12.30;;;7.53;;
58950;SDS011;44730;53.158;6.398;2023-04-24T08:41:47;12.88;;;7.85;;
58950;SDS011;44730;53.158;6.398;2023-04-24T08:44:14;12.80;;;8.63;;
58950;SDS011;44730;53.158;6.398;2023-04-24T08:46:42;14.60;;;8.45;;
58950;SDS011;44730;53.158;6.398;2023-04-24T08:49:11;13.38;;;7.55;;
58950;SDS011;44730;53.158;6.398;2023-04-24T08:51:37;13.63;;;8.02;;
58950;SDS011;44730;53.158;6.398;2023-04-24T08:54:05;13.73;;;8.38;;
58950;SDS011;44730;53.158;6.398;2023-04-24T08:56:33;13.13;;;7.38;;
58950;SDS011;44730;53.158;6.398;2023-04-24T08:59:00;13.65;;;8.10;;
58950;SDS011;44730;53.158;6.398;2023-04-24T09:01:26;10.75;;;7.47;;
58950;SDS011;44730;53.158;6.398;2023-04-24T09:03:53;9.35;;;6.68;;
58950;SDS011;44730;53.158;6.398;2023-04-24T09:06:21;10.13;;;6.97;;
58950;SDS011;44730;53.158;6.398;2023-04-24T09:08:47;9.63;;;6.65;;
58950;SDS011;44730;53.158;6.398;2023-04-24T09:11:15;8.15;;;6.82;;
58950;SDS011;44730;53.158;6.398;2023-04-24T09:13:41;9.00;;;5.57;;
58950;SDS011;44730;53.158;6.398;2023-04-24T09:16:08;13.20;;;5.88;;
58950;SDS011;44730;53.158;6.398;2023-04-24T09:18:34;9.85;;;5.30;;
58950;SDS011;44730;53.158;6.398;2023-04-24T09:21:04;9.23;;;5.07;;
58950;SDS011;44730;53.158;6.398;2023-04-24T09:23:32;7.72;;;5.43;;
58950;SDS011;44730;53.158;6.398;2023-04-24T09:25:59;10.02;;;5.50;;
58950;SDS011;44730;53.158;6.398;2023-04-24T09:28:26;9.45;;;5.55;;
58950;SDS011;44730;53.158;6.398;2023-04-24T09:33:55;10.20;;;5.40;;
58950;SDS011;44730;53.158;6.398;2023-04-24T09:36:31;7.15;;;5.10;;
58950;SDS011;44730;53.158;6.398;2023-04-24T09:39:01;13.68;;;5.32;;
58950;SDS011;44730;53.158;6.398;2023-04-24T09:41:28;7.65;;;5.07;;
58950;SDS011;44730;53.158;6.398;2023-04-24T09:43:54;8.00;;;5.50;;
58950;SDS011;44730;53.158;6.398;2023-04-24T09:46:21;7.45;;;4.80;;
58950;SDS011;44730;53.158;6.398;2023-04-24T09:48:56;9.20;;;4.88;;
58950;SDS011;44730;53.158;6.398;2023-04-24T09:51:36;11.95;;;5.47;;
58950;SDS011;44730;53.158;6.398;2023-04-24T09:54:03;8.43;;;4.20;;
58950;SDS011;44730;53.158;6.398;2023-04-24T09:56:33;7.15;;;3.97;;
58950;SDS011;44730;53.158;6.398;2023-04-24T09:59:06;6.13;;;4.07;;
58950;SDS011;44730;53.158;6.398;2023-04-24T10:01:32;7.90;;;3.72;;
58950;SDS011;44730;53.158;6.398;2023-04-24T10:03:58;5.57;;;3.22;;
58950;SDS011;44730;53.158;6.398;2023-04-24T10:06:32;5.57;;;3.05;;
58950;SDS011;44730;53.158;6.398;2023-04-24T10:08:58;4.55;;;3.30;;
58950;SDS011;44730;53.158;6.398;2023-04-24T10:11:28;4.78;;;3.55;;
58950;SDS011;44730;53.158;6.398;2023-04-24T10:13:54;5.97;;;3.00;;
58950;SDS011;44730;53.158;6.398;2023-04-24T10:16:21;5.95;;;3.10;;
58950;SDS011;44730;53.158;6.398;2023-04-24T10:18:48;5.57;;;3.50;;
58950;SDS011;44730;53.158;6.398;2023-04-24T10:21:15;5.55;;;3.10;;
58950;SDS011;44730;53.158;6.398;2023-04-24T10:23:41;6.47;;;3.50;;
58950;SDS011;44730;53.158;6.398;2023-04-24T10:26:08;5.07;;;2.53;;
58950;SDS011;44730;53.158;6.398;2023-04-24T10:28:36;5.47;;;3.20;;
58950;SDS011;44730;53.158;6.398;2023-04-24T10:31:02;6.85;;;2.85;;
58950;SDS011;44730;53.158;6.398;2023-04-24T10:33:29;4.82;;;2.65;;
58950;SDS011;44730;53.158;6.398;2023-04-24T10:35:56;7.97;;;2.85;;
58950;SDS011;44730;53.158;6.398;2023-04-24T10:38:25;4.32;;;2.80;;
58950;SDS011;44730;53.158;6.398;2023-04-24T10:40:57;4.70;;;2.50;;
58950;SDS011;44730;53.158;6.398;2023-04-24T10:43:23;4.47;;;2.42;;
58950;SDS011;44730;53.158;6.398;2023-04-24T10:46:02;8.20;;;3.00;;
58950;SDS011;44730;53.158;6.398;2023-04-24T10:48:29;7.40;;;2.63;;
58950;SDS011;44730;53.158;6.398;2023-04-24T10:50:55;5.70;;;2.75;;
58950;SDS011;44730;53.158;6.398;2023-04-24T10:53:22;6.97;;;2.67;;
58950;SDS011;44730;53.158;6.398;2023-04-24T10:56:07;5.15;;;2.90;;
58950;SDS011;44730;53.158;6.398;2023-04-24T10:58:41;5.82;;;2.63;;
58950;SDS011;44730;53.158;6.398;2023-04-24T11:01:27;4.22;;;2.13;;
58950;SDS011;44730;53.158;6.398;2023-04-24T11:03:57;5.18;;;2.17;;
58950;SDS011;44730;53.158;6.398;2023-04-24T11:06:30;5.82;;;2.83;;
58950;SDS011;44730;53.158;6.398;2023-04-24T11:09:07;4.72;;;2.35;;
58950;SDS011;44730;53.158;6.398;2023-04-24T11:11:33;3.60;;;2.10;;
58950;SDS011;44730;53.158;6.398;2023-04-24T11:14:00;6.38;;;2.38;;
58950;SDS011;44730;53.158;6.398;2023-04-24T11:21:40;2.35;;;2.00;;
58950;SDS011;44730;53.158;6.398;2023-04-24T11:26:59;3.33;;;1.95;;
58950;SDS011;44730;53.158;6.398;2023-04-24T11:32:15;3.55;;;1.88;;
58950;SDS011;44730;53.158;6.398;2023-04-24T11:34:50;6.57;;;2.00;;
58950;SDS011;44730;53.158;6.398;2023-04-24T11:37:44;4.53;;;2.00;;
58950;SDS011;44730;53.158;6.398;2023-04-24T11:40:11;5.22;;;2.03;;
58950;SDS011;44730;53.158;6.398;2023-04-24T11:42:41;5.35;;;2.10;;
58950;SDS011;44730;53.158;6.398;2023-04-24T11:47:34;3.03;;;1.90;;
58950;SDS011;44730;53.158;6.398;2023-04-24T11:50:01;3.88;;;1.65;;
58950;SDS011;44730;53.158;6.398;2023-04-24T11:52:29;2.58;;;1.48;;
58950;SDS011;44730;53.158;6.398;2023-04-24T11:54:55;3.33;;;1.60;;
58950;SDS011;44730;53.158;6.398;2023-04-24T11:57:24;2.85;;;1.73;;
58950;SDS011;44730;53.158;6.398;2023-04-24T11:59:53;2.17;;;1.67;;
58950;SDS011;44730;53.158;6.398;2023-04-24T12:02:21;3.33;;;1.60;;
58950;SDS011;44730;53.158;6.398;2023-04-24T12:04:47;2.10;;;1.48;;
58950;SDS011;44730;53.158;6.398;2023-04-24T12:07:13;2.15;;;1.60;;
58950;SDS011;44730;53.158;6.398;2023-04-24T12:12:12;10.75;;;2.47;;
58950;SDS011;44730;53.158;6.398;2023-04-24T12:14:48;4.43;;;2.10;;
58950;SDS011;44730;53.158;6.398;2023-04-24T12:17:15;4.80;;;1.70;;
58950;SDS011;44730;53.158;6.398;2023-04-24T12:19:46;3.10;;;1.50;;
58950;SDS011;44730;53.158;6.398;2023-04-24T12:22:12;1.85;;;1.50;;
58950;SDS011;44730;53.158;6.398;2023-04-24T12:27:23;2.35;;;1.40;;
58950;SDS011;44730;53.158;6.398;2023-04-24T12:29:55;2.95;;;1.70;;
58950;SDS011;44730;53.158;6.398;2023-04-24T12:32:21;2.75;;;1.27;;
58950;SDS011;44730;53.158;6.398;2023-04-24T12:34:49;3.95;;;1.40;;
58950;SDS011;44730;53.158;6.398;2023-04-24T12:37:16;3.47;;;1.58;;
58950;SDS011;44730;53.158;6.398;2023-04-24T12:42:28;1.50;;;1.23;;
58950;SDS011;44730;53.158;6.398;2023-04-24T12:44:58;6.13;;;1.40;;
58950;SDS011;44730;53.158;6.398;2023-04-24T12:47:26;1.88;;;1.40;;
58950;SDS011;44730;53.158;6.398;2023-04-24T12:49:52;3.40;;;1.50;;
58950;SDS011;44730;53.158;6.398;2023-04-24T12:52:20;8.30;;;1.98;;
58950;SDS011;44730;53.158;6.398;2023-04-24T12:54:46;3.35;;;1.75;;
58950;SDS011;44730;53.158;6.398;2023-04-24T12:57:12;3.20;;;1.60;;
58950;SDS011;44730;53.158;6.398;2023-04-24T12:59:39;2.72;;;1.38;;
58950;SDS011;44730;53.158;6.398;2023-04-24T13:02:06;4.18;;;1.52;;
58950;SDS011;44730;53.158;6.398;2023-04-24T13:04:32;2.70;;;1.30;;
58950;SDS011;44730;53.158;6.398;2023-04-24T13:06:58;2.60;;;1.40;;
58950;SDS011;44730;53.158;6.398;2023-04-24T13:09:24;1.85;;;1.10;;
58950;SDS011;44730;53.158;6.398;2023-04-24T13:11:50;1.60;;;1.00;;
58950;SDS011;44730;53.158;6.398;2023-04-24T13:14:16;2.03;;;0.80;;
58950;SDS011;44730;53.158;6.398;2023-04-24T13:16:42;1.10;;;0.88;;
58950;SDS011;44730;53.158;6.398;2023-04-24T13:19:08;3.60;;;0.95;;
58950;SDS011;44730;53.158;6.398;2023-04-24T13:21:35;2.30;;;1.23;;
58950;SDS011;44730;53.158;6.398;2023-04-24T13:24:01;2.10;;;1.30;;
58950;SDS011;44730;53.158;6.398;2023-04-24T13:26:29;6.45;;;1.85;;
58950;SDS011;44730;53.158;6.398;2023-04-24T13:28:55;1.73;;;1.20;;
58950;SDS011;44730;53.158;6.398;2023-04-24T13:31:22;2.28;;;1.13;;
58950;SDS011;44730;53.158;6.398;2023-04-24T13:33:48;1.50;;;1.15;;
58950;SDS011;44730;53.158;6.398;2023-04-24T13:36:14;3.65;;;1.40;;
58950;SDS011;44730;53.158;6.398;2023-04-24T13:38:41;3.92;;;1.33;;
58950;SDS011;44730;53.158;6.398;2023-04-24T13:41:07;2.50;;;1.23;;
58950;SDS011;44730;53.158;6.398;2023-04-24T13:43:33;3.05;;;1.17;;
58950;SDS011;44730;53.158;6.398;2023-04-24T13:46:00;3.70;;;1.27;;
58950;SDS011;44730;53.158;6.398;2023-04-24T13:48:28;1.77;;;1.00;;
58950;SDS011;44730;53.158;6.398;2023-04-24T13:50:54;2.45;;;1.05;;
58950;SDS011;44730;53.158;6.398;2023-04-24T13:53:20;2.95;;;1.10;;
58950;SDS011;44730;53.158;6.398;2023-04-24T13:55:46;2.60;;;1.17;;
58950;SDS011;44730;53.158;6.398;2023-04-24T13:58:12;3.03;;;1.50;;
58950;SDS011;44730;53.158;6.398;2023-04-24T14:00:38;2.95;;;1.80;;
58950;SDS011;44730;53.158;6.398;2023-04-24T14:03:04;4.45;;;1.83;;
58950;SDS011;44730;53.158;6.398;2023-04-24T14:05:30;3.58;;;1.90;;
58950;SDS011;44730;53.158;6.398;2023-04-24T14:07:56;4.22;;;2.28;;
58950;SDS011;44730;53.158;6.398;2023-04-24T14:10:23;3.95;;;1.80;;
58950;SDS011;44730;53.158;6.398;2023-04-24T14:12:49;3.67;;;1.98;;
58950;SDS011;44730;53.158;6.398;2023-04-24T14:15:15;3.67;;;2.10;;
58950;SDS011;44730;53.158;6.398;2023-04-24T14:17:41;3.58;;;2.47;;
58950;SDS011;44730;53.158;6.398;2023-04-24T14:20:08;6.47;;;2.45;;
58950;SDS011;44730;53.158;6.398;2023-04-24T14:22:34;7.50;;;2.65;;
58950;SDS011;44730;53.158;6.398;2023-04-24T14:25:00;5.05;;;2.47;;
58950;SDS011;44730;53.158;6.398;2023-04-24T14:27:26;5.75;;;2.38;;
58950;SDS011;44730;53.158;6.398;2023-04-24T14:29:52;7.47;;;2.38;;
58950;SDS011;44730;53.158;6.398;2023-04-24T14:32:18;6.10;;;2.38;;
58950;SDS011;44730;53.158;6.398;2023-04-24T14:34:44;4.53;;;2.22;;
58950;SDS011;44730;53.158;6.398;2023-04-24T14:37:10;6.22;;;1.90;;
58950;SDS011;44730;53.158;6.398;2023-04-24T14:39:37;2.40;;;1.85;;
58950;SDS011;44730;53.158;6.398;2023-04-24T14:42:03;6.15;;;2.25;;
58950;SDS011;44730;53.158;6.398;2023-04-24T14:44:29;4.78;;;2.20;;
58950;SDS011;44730;53.158;6.398;2023-04-24T14:46:55;3.42;;;1.85;;
58950;SDS011;44730;53.158;6.398;2023-04-24T14:49:21;5.13;;;2.33;;
58950;SDS011;44730;53.158;6.398;2023-04-24T14:51:47;7.93;;;2.30;;
58950;SDS011;44730;53.158;6.398;2023-04-24T14:54:13;5.30;;;2.53;;
58950;SDS011;44730;53.158;6.398;2023-04-24T14:56:39;10.23;;;2.85;;
58950;SDS011;44730;53.158;6.398;2023-04-24T14:59:06;5.07;;;2.42;;
58950;SDS011;44730;53.158;6.398;2023-04-24T15:01:32;4.95;;;2.40;;
58950;SDS011;44730;53.158;6.398;2023-04-24T15:03:58;5.00;;;2.55;;
58950;SDS011;44730;53.158;6.398;2023-04-24T15:06:24;5.97;;;2.50;;
58950;SDS011;44730;53.158;6.398;2023-04-24T15:08:50;5.15;;;2.40;;